sensor_id;sensor_type;location;lat;lon;timestamp;pressure;altitude;pressure_sealevel;temperature;humidity
27805;BME280;15183;51.350;11.102;2022-09-21T00:01:21;100962.97;;;11.45;66.60
27805;BME280;15183;51.350;11.102;2022-09-21T00:03:53;100976.06;;;11.47;67.03
27805;BME280;15183;51.350;11.102;2022-09-21T00:06:22;100908.47;;;11.02;66.55
27805;BME280;15183;51.350;11.102;2022-09-21T00:08:49;100912.34;;;11.06;66.82
27805;BME280;15183;51.350;11.102;2022-09-21T00:11:23;100970.53;;;11.41;66.74
27805;BME280;15183;51.350;11.102;2022-09-21T00:13:59;100971.94;;;11.44;66.61
27805;BME280;15183;51.350;11.102;2022-09-21T00:16:27;100972.78;;;11.44;66.61
27805;BME280;15183;51.350;11.102;2022-09-21T00:18:54;100922.72;;;11.08;66.43
27805;BME280;15183;51.350;11.102;2022-09-21T00:21:24;100914.38;;;11.04;66.39
27805;BME280;15183;51.350;11.102;2022-09-21T00:23:50;100966.44;;;11.32;66.80
27805;BME280;15183;51.350;11.102;2022-09-21T00:26:20;100911.88;;;10.96;66.57
27805;BME280;15183;51.350;11.102;2022-09-21T00:28:52;100948.69;;;11.19;66.45
27805;BME280;15183;51.350;11.102;2022-09-21T00:31:20;100968.03;;;11.20;66.19
27805;BME280;15183;51.350;11.102;2022-09-21T00:33:47;100932.69;;;10.85;66.20
27805;BME280;15183;51.350;11.102;2022-09-21T00:36:17;100892.56;;;10.40;66.47
27805;BME280;15183;51.350;11.102;2022-09-21T00:38:49;100889.22;;;10.24;66.57
27805;BME280;15183;51.350;11.102;2022-09-21T00:41:17;100980.72;;;10.62;66.73
27805;BME280;15183;51.350;11.102;2022-09-21T00:44:31;100991.66;;;10.52;67.18
27805;BME280;15183;51.350;11.102;2022-09-21T00:47:09;100979.53;;;10.36;67.57
27805;BME280;15183;51.350;11.102;2022-09-21T00:49:38;100924.31;;;9.98;67.42
27805;BME280;15183;51.350;11.102;2022-09-21T00:52:07;100956.75;;;10.07;67.88
27805;BME280;15183;51.350;11.102;2022-09-21T00:54:50;100964.50;;;10.08;67.70
27805;BME280;15183;51.350;11.102;2022-09-21T00:57:20;100982.88;;;10.17;68.09
27805;BME280;15183;51.350;11.102;2022-09-21T00:59:50;100958.94;;;9.96;68.05
27805;BME280;15183;51.350;11.102;2022-09-21T01:02:17;100977.53;;;10.10;68.26
27805;BME280;15183;51.350;11.102;2022-09-21T01:04:45;100948.06;;;9.84;68.14
27805;BME280;15183;51.350;11.102;2022-09-21T01:07:20;100927.34;;;9.66;68.29
27805;BME280;15183;51.350;11.102;2022-09-21T01:09:54;101000.03;;;10.21;68.57
27805;BME280;15183;51.350;11.102;2022-09-21T01:12:49;101006.41;;;10.33;68.45
27805;BME280;15183;51.350;11.102;2022-09-21T01:15:34;101007.28;;;10.40;68.19
27805;BME280;15183;51.350;11.102;2022-09-21T01:21:07;101006.59;;;10.60;67.70
27805;BME280;15183;51.350;11.102;2022-09-21T01:30:10;100980.84;;;10.47;67.44
27805;BME280;15183;51.350;11.102;2022-09-21T01:32:45;100992.50;;;10.60;67.48
27805;BME280;15183;51.350;11.102;2022-09-21T01:35:40;100950.31;;;10.23;67.22
27805;BME280;15183;51.350;11.102;2022-09-21T01:38:48;100989.41;;;10.42;67.38
27805;BME280;15183;51.350;11.102;2022-09-21T01:41:21;100987.25;;;10.31;67.91
27805;BME280;15183;51.350;11.102;2022-09-21T01:43:54;100966.00;;;10.18;67.87
27805;BME280;15183;51.350;11.102;2022-09-21T01:46:29;100987.41;;;10.23;67.92
27805;BME280;15183;51.350;11.102;2022-09-21T01:49:02;101006.81;;;10.30;67.83
27805;BME280;15183;51.350;11.102;2022-09-21T01:51:32;101007.59;;;10.24;68.24
27805;BME280;15183;51.350;11.102;2022-09-21T01:54:10;100968.69;;;9.96;68.31
27805;BME280;15183;51.350;11.102;2022-09-21T01:56:46;101012.81;;;10.17;68.53
27805;BME280;15183;51.350;11.102;2022-09-21T01:59:25;101016.69;;;10.14;68.48
27805;BME280;15183;51.350;11.102;2022-09-21T02:02:09;100994.84;;;10.06;68.79
27805;BME280;15183;51.350;11.102;2022-09-21T02:04:38;100983.38;;;9.98;68.73
27805;BME280;15183;51.350;11.102;2022-09-21T02:07:06;100922.13;;;9.73;68.49
27805;BME280;15183;51.350;11.102;2022-09-21T02:09:35;100999.19;;;10.20;68.78
27805;BME280;15183;51.350;11.102;2022-09-21T02:12:03;101013.75;;;10.31;68.62
27805;BME280;15183;51.350;11.102;2022-09-21T02:14:31;101019.88;;;10.32;68.60
27805;BME280;15183;51.350;11.102;2022-09-21T02:20:17;101021.28;;;10.34;68.57
27805;BME280;15183;51.350;11.102;2022-09-21T02:23:13;100998.44;;;10.26;68.71
27805;BME280;15183;51.350;11.102;2022-09-21T02:26:04;101018.88;;;10.39;68.68
27805;BME280;15183;51.350;11.102;2022-09-21T02:28:54;101011.31;;;10.36;68.36
27805;BME280;15183;51.350;11.102;2022-09-21T02:34:38;101018.53;;;10.42;68.60
27805;BME280;15183;51.350;11.102;2022-09-21T02:42:42;100988.25;;;10.30;68.72
27805;BME280;15183;51.350;11.102;2022-09-21T02:45:44;100942.44;;;10.01;68.61
27805;BME280;15183;51.350;11.102;2022-09-21T02:48:17;100982.56;;;10.33;68.23
27805;BME280;15183;51.350;11.102;2022-09-21T02:50:51;100924.22;;;9.84;68.38
27805;BME280;15183;51.350;11.102;2022-09-21T02:53:28;101002.25;;;10.46;68.33
27805;BME280;15183;51.350;11.102;2022-09-21T02:55:59;100959.63;;;10.12;68.50
27805;BME280;15183;51.350;11.102;2022-09-21T02:58:40;101013.69;;;10.53;68.08
27805;BME280;15183;51.350;11.102;2022-09-21T03:01:13;101015.91;;;10.49;68.15
27805;BME280;15183;51.350;11.102;2022-09-21T03:03:40;101003.88;;;10.47;68.24
27805;BME280;15183;51.350;11.102;2022-09-21T03:06:07;100986.44;;;10.31;68.10
27805;BME280;15183;51.350;11.102;2022-09-21T03:08:33;100927.06;;;9.83;68.06
27805;BME280;15183;51.350;11.102;2022-09-21T03:11:01;101018.94;;;10.46;68.54
27805;BME280;15183;51.350;11.102;2022-09-21T03:13:28;101015.06;;;10.42;67.96
27805;BME280;15183;51.350;11.102;2022-09-21T03:16:05;101014.03;;;10.43;68.27
27805;BME280;15183;51.350;11.102;2022-09-21T03:18:32;100952.00;;;9.95;68.31
27805;BME280;15183;51.350;11.102;2022-09-21T03:20:59;101008.25;;;10.33;67.92
27805;BME280;15183;51.350;11.102;2022-09-21T03:23:27;100979.16;;;10.04;67.77
27805;BME280;15183;51.350;11.102;2022-09-21T03:25:54;101024.53;;;10.30;68.18
27805;BME280;15183;51.350;11.102;2022-09-21T03:28:21;101017.94;;;10.19;68.15
27805;BME280;15183;51.350;11.102;2022-09-21T03:30:50;101006.44;;;10.05;67.99
27805;BME280;15183;51.350;11.102;2022-09-21T03:33:20;101003.72;;;9.98;68.11
27805;BME280;15183;51.350;11.102;2022-09-21T03:35:51;101003.09;;;9.96;68.06
27805;BME280;15183;51.350;11.102;2022-09-21T03:38:18;101025.97;;;10.04;68.37
27805;BME280;15183;51.350;11.102;2022-09-21T03:40:47;101035.75;;;10.03;68.64
27805;BME280;15183;51.350;11.102;2022-09-21T03:43:15;100982.22;;;9.58;68.57
27805;BME280;15183;51.350;11.102;2022-09-21T03:45:42;100968.06;;;9.44;68.41
27805;BME280;15183;51.350;11.102;2022-09-21T03:48:10;101041.31;;;9.87;68.53
27805;BME280;15183;51.350;11.102;2022-09-21T03:50:38;101033.53;;;9.78;68.55
27805;BME280;15183;51.350;11.102;2022-09-21T03:53:04;100946.03;;;9.15;68.69
27805;BME280;15183;51.350;11.102;2022-09-21T03:55:31;101039.56;;;9.72;69.01
27805;BME280;15183;51.350;11.102;2022-09-21T03:57:58;101006.72;;;9.45;68.90
27805;BME280;15183;51.350;11.102;2022-09-21T04:00:25;101033.75;;;9.62;69.02
27805;BME280;15183;51.350;11.102;2022-09-21T04:02:51;101041.13;;;9.66;69.40
27805;BME280;15183;51.350;11.102;2022-09-21T04:05:18;101006.38;;;9.48;69.32
27805;BME280;15183;51.350;11.102;2022-09-21T04:07:45;101028.28;;;9.63;69.09
27805;BME280;15183;51.350;11.102;2022-09-21T04:10:18;101029.06;;;9.57;69.06
27805;BME280;15183;51.350;11.102;2022-09-21T04:12:46;101047.28;;;9.67;69.30
27805;BME280;15183;51.350;11.102;2022-09-21T04:15:18;100975.81;;;9.23;69.17
27805;BME280;15183;51.350;11.102;2022-09-21T04:17:53;101038.88;;;9.63;69.23
27805;BME280;15183;51.350;11.102;2022-09-21T04:20:20;100954.16;;;9.13;69.16
27805;BME280;15183;51.350;11.102;2022-09-21T04:22:47;101053.47;;;9.81;68.69
27805;BME280;15183;51.350;11.102;2022-09-21T04:25:14;101024.25;;;9.67;68.85
27805;BME280;15183;51.350;11.102;2022-09-21T04:27:41;101040.38;;;9.73;68.94
27805;BME280;15183;51.350;11.102;2022-09-21T04:30:13;101002.78;;;9.55;68.75
27805;BME280;15183;51.350;11.102;2022-09-21T04:32:40;101042.00;;;9.74;68.69
27805;BME280;15183;51.350;11.102;2022-09-21T04:35:07;101043.41;;;9.69;68.80
27805;BME280;15183;51.350;11.102;2022-09-21T04:37:34;101012.03;;;9.45;68.63
27805;BME280;15183;51.350;11.102;2022-09-21T04:40:00;101054.13;;;9.61;68.94
27805;BME280;15183;51.350;11.102;2022-09-21T04:42:27;101038.31;;;9.46;68.78
27805;BME280;15183;51.350;11.102;2022-09-21T04:44:55;100982.16;;;9.07;69.17
27805;BME280;15183;51.350;11.102;2022-09-21T04:47:21;101020.38;;;9.26;69.04
27805;BME280;15183;51.350;11.102;2022-09-21T04:49:50;100971.81;;;8.91;69.11
27805;BME280;15183;51.350;11.102;2022-09-21T04:52:18;101008.31;;;9.02;69.21
27805;BME280;15183;51.350;11.102;2022-09-21T04:54:44;100992.69;;;8.86;68.90
27805;BME280;15183;51.350;11.102;2022-09-21T04:57:11;101052.06;;;9.20;68.80
27805;BME280;15183;51.350;11.102;2022-09-21T04:59:38;101049.69;;;9.25;69.16
27805;BME280;15183;51.350;11.102;2022-09-21T05:02:04;101055.09;;;9.17;69.06
27805;BME280;15183;51.350;11.102;2022-09-21T05:04:30;101062.63;;;9.20;69.36
27805;BME280;15183;51.350;11.102;2022-09-21T05:06:57;100996.63;;;8.75;69.36
27805;BME280;15183;51.350;11.102;2022-09-21T05:09:24;101054.88;;;9.18;69.57
27805;BME280;15183;51.350;11.102;2022-09-21T05:12:09;101046.19;;;9.24;69.41
27805;BME280;15183;51.350;11.102;2022-09-21T05:14:35;101026.28;;;9.07;69.50
27805;BME280;15183;51.350;11.102;2022-09-21T05:17:02;101070.59;;;9.41;69.23
27805;BME280;15183;51.350;11.102;2022-09-21T05:19:28;101043.28;;;9.19;69.65
27805;BME280;15183;51.350;11.102;2022-09-21T05:21:55;101080.97;;;9.58;69.70
27805;BME280;15183;51.350;11.102;2022-09-21T05:24:21;101077.22;;;9.52;69.58
27805;BME280;15183;51.350;11.102;2022-09-21T05:26:48;101088.78;;;9.66;69.94
27805;BME280;15183;51.350;11.102;2022-09-21T05:29:14;101064.06;;;9.59;70.29
27805;BME280;15183;51.350;11.102;2022-09-21T05:31:56;101079.69;;;9.76;70.71
27805;BME280;15183;51.350;11.102;2022-09-21T05:37:55;101084.63;;;10.01;70.69
27805;BME280;15183;51.350;11.102;2022-09-21T05:40:24;101091.66;;;10.15;70.87
27805;BME280;15183;51.350;11.102;2022-09-21T05:42:51;101100.53;;;10.29;71.16
27805;BME280;15183;51.350;11.102;2022-09-21T05:45:18;101095.56;;;10.41;71.03
27805;BME280;15183;51.350;11.102;2022-09-21T05:48:04;100999.69;;;10.02;71.21
27805;BME280;15183;51.350;11.102;2022-09-21T05:50:58;101098.69;;;10.86;71.26
27805;BME280;15183;51.350;11.102;2022-09-21T05:57:04;101097.28;;;10.91;70.29
27805;BME280;15183;51.350;11.102;2022-09-21T06:00:11;101088.88;;;10.80;70.77
27805;BME280;15183;51.350;11.102;2022-09-21T06:03:31;101106.63;;;10.80;70.49
27805;BME280;15183;51.350;11.102;2022-09-21T06:05:50;101060.78;;;10.51;70.69
27805;BME280;15183;51.350;11.102;2022-09-21T06:08:17;101053.91;;;10.35;70.57
27805;BME280;15183;51.350;11.102;2022-09-21T06:10:43;101075.91;;;10.57;70.88
27805;BME280;15183;51.350;11.102;2022-09-21T06:13:10;101112.09;;;10.78;70.70
27805;BME280;15183;51.350;11.102;2022-09-21T06:15:37;101130.91;;;10.83;70.68
27805;BME280;15183;51.350;11.102;2022-09-21T06:18:05;101084.03;;;10.55;70.79
27805;BME280;15183;51.350;11.102;2022-09-21T06:20:32;101052.50;;;10.39;70.55
27805;BME280;15183;51.350;11.102;2022-09-21T06:23:08;101096.81;;;10.80;71.07
27805;BME280;15183;51.350;11.102;2022-09-21T06:25:34;101125.34;;;11.13;71.76
27805;BME280;15183;51.350;11.102;2022-09-21T06:28:10;101104.59;;;11.31;71.82
27805;BME280;15183;51.350;11.102;2022-09-21T06:30:38;101129.19;;;11.66;71.68
27805;BME280;15183;51.350;11.102;2022-09-21T06:33:07;101080.78;;;11.51;71.69
27805;BME280;15183;51.350;11.102;2022-09-21T06:35:35;101118.22;;;11.96;72.34
27805;BME280;15183;51.350;11.102;2022-09-21T06:38:06;101130.13;;;12.27;72.37
27805;BME280;15183;51.350;11.102;2022-09-21T06:40:35;101114.19;;;12.34;72.33
27805;BME280;15183;51.350;11.102;2022-09-21T06:43:03;101124.81;;;12.54;71.92
27805;BME280;15183;51.350;11.102;2022-09-21T06:45:31;101029.59;;;12.04;72.21
27805;BME280;15183;51.350;11.102;2022-09-21T06:47:57;101059.63;;;12.32;71.57
27805;BME280;15183;51.350;11.102;2022-09-21T06:50:24;101127.22;;;12.76;71.90
27805;BME280;15183;51.350;11.102;2022-09-21T06:52:51;101106.97;;;12.75;72.34
27805;BME280;15183;51.350;11.102;2022-09-21T06:55:17;101112.28;;;12.88;72.15
27805;BME280;15183;51.350;11.102;2022-09-21T06:57:44;101076.75;;;12.63;71.29
27805;BME280;15183;51.350;11.102;2022-09-21T07:00:12;101121.84;;;13.03;71.66
27805;BME280;15183;51.350;11.102;2022-09-21T07:02:45;101056.50;;;12.62;71.74
27805;BME280;15183;51.350;11.102;2022-09-21T07:05:12;101123.22;;;13.19;71.36
27805;BME280;15183;51.350;11.102;2022-09-21T07:07:38;101141.34;;;13.36;71.55
27805;BME280;15183;51.350;11.102;2022-09-21T07:10:06;101136.66;;;13.44;71.46
27805;BME280;15183;51.350;11.102;2022-09-21T07:12:33;101120.88;;;13.43;70.96
27805;BME280;15183;51.350;11.102;2022-09-21T07:15:04;101127.19;;;13.55;71.38
27805;BME280;15183;51.350;11.102;2022-09-21T07:17:36;101095.50;;;13.47;70.91
27805;BME280;15183;51.350;11.102;2022-09-21T07:20:05;101107.53;;;13.50;69.55
27805;BME280;15183;51.350;11.102;2022-09-21T07:22:33;101129.38;;;13.65;70.08
27805;BME280;15183;51.350;11.102;2022-09-21T07:25:00;101142.19;;;13.82;70.14
27805;BME280;15183;51.350;11.102;2022-09-21T07:27:29;101144.03;;;13.81;69.91
27805;BME280;15183;51.350;11.102;2022-09-21T07:29:56;101086.56;;;13.60;70.28
27805;BME280;15183;51.350;11.102;2022-09-21T07:32:23;101146.91;;;14.12;70.13
27805;BME280;15183;51.350;11.102;2022-09-21T07:34:51;101161.75;;;14.26;69.88
27805;BME280;15183;51.350;11.102;2022-09-21T07:37:23;101127.16;;;14.19;69.37
27805;BME280;15183;51.350;11.102;2022-09-21T07:39:50;101136.88;;;14.32;69.38
27805;BME280;15183;51.350;11.102;2022-09-21T07:42:20;101110.94;;;14.21;68.46
27805;BME280;15183;51.350;11.102;2022-09-21T07:44:48;101153.03;;;14.38;68.25
27805;BME280;15183;51.350;11.102;2022-09-21T07:47:15;101137.59;;;14.21;68.29
27805;BME280;15183;51.350;11.102;2022-09-21T07:49:41;101153.00;;;14.19;67.75
27805;BME280;15183;51.350;11.102;2022-09-21T07:52:07;101143.09;;;14.01;67.53
27805;BME280;15183;51.350;11.102;2022-09-21T07:54:35;101138.88;;;13.86;67.53
27805;BME280;15183;51.350;11.102;2022-09-21T07:57:02;101150.34;;;13.87;67.41
27805;BME280;15183;51.350;11.102;2022-09-21T07:59:57;101149.41;;;13.74;67.63
27805;BME280;15183;51.350;11.102;2022-09-21T08:02:24;101151.09;;;13.62;67.71
27805;BME280;15183;51.350;11.102;2022-09-21T08:04:51;101086.72;;;13.33;67.50
27805;BME280;15183;51.350;11.102;2022-09-21T08:07:18;101091.38;;;13.38;67.84
27805;BME280;15183;51.350;11.102;2022-09-21T08:09:45;101133.09;;;13.64;67.93
27805;BME280;15183;51.350;11.102;2022-09-21T08:12:14;101140.59;;;13.74;67.56
27805;BME280;15183;51.350;11.102;2022-09-21T08:14:43;101128.09;;;13.74;67.86
27805;BME280;15183;51.350;11.102;2022-09-21T08:17:10;101165.84;;;14.03;68.16
27805;BME280;15183;51.350;11.102;2022-09-21T08:19:37;101159.56;;;14.16;67.68
27805;BME280;15183;51.350;11.102;2022-09-21T08:22:03;101123.78;;;14.06;67.30
27805;BME280;15183;51.350;11.102;2022-09-21T08:24:29;101146.75;;;14.32;67.40
27805;BME280;15183;51.350;11.102;2022-09-21T08:26:56;101141.97;;;14.41;67.29
27805;BME280;15183;51.350;11.102;2022-09-21T08:29:24;101160.66;;;14.59;66.83
27805;BME280;15183;51.350;11.102;2022-09-21T08:31:52;101154.28;;;14.60;66.76
27805;BME280;15183;51.350;11.102;2022-09-21T08:34:18;101149.50;;;14.69;66.68
27805;BME280;15183;51.350;11.102;2022-09-21T08:36:45;101116.66;;;14.50;66.73
27805;BME280;15183;51.350;11.102;2022-09-21T08:39:12;101171.03;;;14.93;66.24
27805;BME280;15183;51.350;11.102;2022-09-21T08:44:37;101147.56;;;15.21;66.23
27805;BME280;15183;51.350;11.102;2022-09-21T08:47:20;101157.16;;;15.59;65.91
27805;BME280;15183;51.350;11.102;2022-09-21T08:49:57;101133.28;;;15.76;65.67
27805;BME280;15183;51.350;11.102;2022-09-21T08:52:25;101160.94;;;16.12;64.83
27805;BME280;15183;51.350;11.102;2022-09-21T08:55:00;101150.81;;;16.26;64.64
27805;BME280;15183;51.350;11.102;2022-09-21T08:57:31;101146.75;;;16.47;64.31
27805;BME280;15183;51.350;11.102;2022-09-21T08:59:59;101133.38;;;16.59;63.57
27805;BME280;15183;51.350;11.102;2022-09-21T09:03:07;101166.56;;;17.06;63.83
27805;BME280;15183;51.350;11.102;2022-09-21T09:05:54;101101.94;;;16.90;63.91
27805;BME280;15183;51.350;11.102;2022-09-21T09:08:46;101165.78;;;17.63;63.22
27805;BME280;15183;51.350;11.102;2022-09-21T09:11:38;101151.75;;;17.73;62.47
27805;BME280;15183;51.350;11.102;2022-09-21T09:16:58;101159.56;;;18.21;62.13
27805;BME280;15183;51.350;11.102;2022-09-21T09:22:11;101125.41;;;18.33;61.66
27805;BME280;15183;51.350;11.102;2022-09-21T09:24:48;101145.63;;;18.58;61.00
27805;BME280;15183;51.350;11.102;2022-09-21T09:27:29;101161.25;;;18.61;61.59
27805;BME280;15183;51.350;11.102;2022-09-21T09:30:21;101144.78;;;18.75;61.73
27805;BME280;15183;51.350;11.102;2022-09-21T09:33:15;101130.34;;;18.81;61.21
27805;BME280;15183;51.350;11.102;2022-09-21T09:36:00;101128.94;;;18.95;60.70
27805;BME280;15183;51.350;11.102;2022-09-21T09:39:13;101145.41;;;19.27;60.35
27805;BME280;15183;51.350;11.102;2022-09-21T09:50:49;101097.84;;;19.49;59.54
27805;BME280;15183;51.350;11.102;2022-09-21T09:53:18;101086.59;;;19.58;58.96
27805;BME280;15183;51.350;11.102;2022-09-21T09:55:49;101113.59;;;19.95;58.63
27805;BME280;15183;51.350;11.102;2022-09-21T09:58:18;101133.69;;;20.25;58.08
27805;BME280;15183;51.350;11.102;2022-09-21T10:00:49;101120.31;;;20.31;57.96
27805;BME280;15183;51.350;11.102;2022-09-21T10:03:20;101130.41;;;20.56;57.22
27805;BME280;15183;51.350;11.102;2022-09-21T10:05:47;101120.75;;;20.60;57.31
27805;BME280;15183;51.350;11.102;2022-09-21T10:11:12;101104.16;;;20.79;56.46
27805;BME280;15183;51.350;11.102;2022-09-21T10:13:41;101077.16;;;20.68;56.59
27805;BME280;15183;51.350;11.102;2022-09-21T10:16:26;101037.53;;;20.64;56.38
27805;BME280;15183;51.350;11.102;2022-09-21T10:18:54;101090.25;;;21.18;55.92
27805;BME280;15183;51.350;11.102;2022-09-21T10:21:26;101110.28;;;21.43;55.49
27805;BME280;15183;51.350;11.102;2022-09-21T10:24:13;101100.31;;;21.49;55.09
27805;BME280;15183;51.350;11.102;2022-09-21T10:34:30;101113.56;;;22.07;53.84
27805;BME280;15183;51.350;11.102;2022-09-21T10:37:19;101049.09;;;21.75;53.65
27805;BME280;15183;51.350;11.102;2022-09-21T10:39:45;101096.28;;;22.14;54.12
27805;BME280;15183;51.350;11.102;2022-09-21T10:42:15;101091.41;;;22.16;53.97
27805;BME280;15183;51.350;11.102;2022-09-21T10:44:52;101112.44;;;22.34;53.57
27805;BME280;15183;51.350;11.102;2022-09-21T10:47:43;101106.75;;;22.51;53.03
27805;BME280;15183;51.350;11.102;2022-09-21T10:50:50;101088.09;;;22.60;53.00
27805;BME280;15183;51.350;11.102;2022-09-21T10:58:27;101116.25;;;23.09;50.04
27805;BME280;15183;51.350;11.102;2022-09-21T11:00:55;101100.78;;;23.20;50.49
27805;BME280;15183;51.350;11.102;2022-09-21T11:03:41;101090.19;;;23.24;50.17
27805;BME280;15183;51.350;11.102;2022-09-21T11:06:38;101046.75;;;23.10;49.97
27805;BME280;15183;51.350;11.102;2022-09-21T11:26:38;101085.13;;;23.92;48.42
27805;BME280;15183;51.350;11.102;2022-09-21T11:29:37;101086.03;;;23.82;48.39
27805;BME280;15183;51.350;11.102;2022-09-21T11:38:50;101091.22;;;22.88;48.52
27805;BME280;15183;51.350;11.102;2022-09-21T11:41:49;101092.91;;;22.68;48.35
27805;BME280;15183;51.350;11.102;2022-09-21T11:47:56;101085.72;;;22.33;48.26
27805;BME280;15183;51.350;11.102;2022-09-21T11:53:15;101078.22;;;22.04;47.96
27805;BME280;15183;51.350;11.102;2022-09-21T11:59:42;101079.56;;;22.06;49.31
27805;BME280;15183;51.350;11.102;2022-09-21T12:12:25;101067.22;;;22.76;48.81
27805;BME280;15183;51.350;11.102;2022-09-21T12:15:23;101068.75;;;22.98;48.01
27805;BME280;15183;51.350;11.102;2022-09-21T12:20:47;101050.38;;;23.40;47.90
27805;BME280;15183;51.350;11.102;2022-09-21T12:23:42;101056.09;;;23.68;46.72
27805;BME280;15183;51.350;11.102;2022-09-21T12:26:12;101047.63;;;23.80;47.19
27805;BME280;15183;51.350;11.102;2022-09-21T12:29:04;101036.97;;;23.89;46.91
27805;BME280;15183;51.350;11.102;2022-09-21T12:34:59;101058.97;;;24.36;46.47
27805;BME280;15183;51.350;11.102;2022-09-21T12:37:39;101049.84;;;24.51;46.48
27805;BME280;15183;51.350;11.102;2022-09-21T12:40:32;101055.38;;;24.65;46.04
27805;BME280;15183;51.350;11.102;2022-09-21T12:43:25;101027.47;;;24.64;45.56
27805;BME280;15183;51.350;11.102;2022-09-21T12:46:05;101022.50;;;24.71;45.74
27805;BME280;15183;51.350;11.102;2022-09-21T12:48:36;101046.03;;;24.95;45.73
27805;BME280;15183;51.350;11.102;2022-09-21T12:51:31;101031.97;;;24.93;44.93
27805;BME280;15183;51.350;11.102;2022-09-21T12:54:17;101026.13;;;24.86;44.28
27805;BME280;15183;51.350;11.102;2022-09-21T13:00:04;101036.81;;;24.96;44.53
27805;BME280;15183;51.350;11.102;2022-09-21T13:05:22;101031.97;;;24.93;43.36
27805;BME280;15183;51.350;11.102;2022-09-21T13:08:15;101015.94;;;24.78;43.42
27805;BME280;15183;51.350;11.102;2022-09-21T13:11:03;101024.00;;;24.83;43.62
27805;BME280;15183;51.350;11.102;2022-09-21T13:13:44;101015.03;;;24.63;43.39
27805;BME280;15183;51.350;11.102;2022-09-21T13:16:34;101007.84;;;24.53;44.21
27805;BME280;15183;51.350;11.102;2022-09-21T13:21:38;101002.75;;;24.47;44.17
27805;BME280;15183;51.350;11.102;2022-09-21T13:24:21;101018.88;;;24.57;43.42
27805;BME280;15183;51.350;11.102;2022-09-21T13:26:58;100999.50;;;24.25;44.02
27805;BME280;15183;51.350;11.102;2022-09-21T13:29:31;100964.03;;;23.97;43.34
27805;BME280;15183;51.350;11.102;2022-09-21T13:34:38;100970.34;;;23.93;42.81
27805;BME280;15183;51.350;11.102;2022-09-21T13:39:53;101018.72;;;23.99;43.57
27805;BME280;15183;51.350;11.102;2022-09-21T13:47:43;101008.13;;;23.49;43.88
27805;BME280;15183;51.350;11.102;2022-09-21T13:50:27;101019.94;;;23.59;43.65
27805;BME280;15183;51.350;11.102;2022-09-21T13:52:59;100938.66;;;23.05;43.22
27805;BME280;15183;51.350;11.102;2022-09-21T13:55:35;100958.63;;;23.14;42.78
27805;BME280;15183;51.350;11.102;2022-09-21T13:58:34;100970.75;;;23.17;41.95
27805;BME280;15183;51.350;11.102;2022-09-21T14:01:33;100996.72;;;23.12;42.91
27805;BME280;15183;51.350;11.102;2022-09-21T14:04:28;101005.69;;;23.08;42.43
27805;BME280;15183;51.350;11.102;2022-09-21T14:06:57;100994.41;;;22.95;42.30
27805;BME280;15183;51.350;11.102;2022-09-21T14:09:52;101003.09;;;22.92;42.38
27805;BME280;15183;51.350;11.102;2022-09-21T14:12:23;101012.63;;;22.79;42.34
27805;BME280;15183;51.350;11.102;2022-09-21T14:18:20;100935.41;;;22.12;42.98
27805;BME280;15183;51.350;11.102;2022-09-21T14:23:36;100924.97;;;21.90;43.03
27805;BME280;15183;51.350;11.102;2022-09-21T14:31:56;100991.47;;;22.31;42.31
27805;BME280;15183;51.350;11.102;2022-09-21T14:34:34;101002.03;;;22.27;42.80
27805;BME280;15183;51.350;11.102;2022-09-21T14:37:12;101004.44;;;22.29;42.23
27805;BME280;15183;51.350;11.102;2022-09-21T14:39:44;100990.44;;;22.22;42.15
27805;BME280;15183;51.350;11.102;2022-09-21T14:42:18;100982.38;;;22.11;42.28
27805;BME280;15183;51.350;11.102;2022-09-21T14:44:49;100951.16;;;21.85;42.06
27805;BME280;15183;51.350;11.102;2022-09-21T14:47:34;101000.22;;;22.02;42.36
27805;BME280;15183;51.350;11.102;2022-09-21T14:50:34;100983.00;;;21.82;42.58
27805;BME280;15183;51.350;11.102;2022-09-21T14:59:39;100985.69;;;21.62;42.78
27805;BME280;15183;51.350;11.102;2022-09-21T15:02:27;100965.47;;;21.38;43.05
27805;BME280;15183;51.350;11.102;2022-09-21T15:05:17;100982.75;;;21.43;43.07
27805;BME280;15183;51.350;11.102;2022-09-21T15:08:39;100980.84;;;21.38;43.30
27805;BME280;15183;51.350;11.102;2022-09-21T15:11:42;100969.50;;;21.20;43.87
27805;BME280;15183;51.350;11.102;2022-09-21T15:14:31;100975.19;;;21.24;43.86
27805;BME280;15183;51.350;11.102;2022-09-21T15:16:59;100968.19;;;21.13;44.35
27805;BME280;15183;51.350;11.102;2022-09-21T15:19:28;100961.19;;;21.06;44.43
27805;BME280;15183;51.350;11.102;2022-09-21T15:22:15;100963.31;;;20.99;43.90
27805;BME280;15183;51.350;11.102;2022-09-21T15:24:57;100955.75;;;20.91;44.04
27805;BME280;15183;51.350;11.102;2022-09-21T15:27:29;100937.09;;;20.74;44.83
27805;BME280;15183;51.350;11.102;2022-09-21T15:30:01;100953.84;;;20.81;45.08
27805;BME280;15183;51.350;11.102;2022-09-21T15:32:38;100962.22;;;20.79;44.20
27805;BME280;15183;51.350;11.102;2022-09-21T15:35:24;100966.72;;;20.74;44.69
27805;BME280;15183;51.350;11.102;2022-09-21T15:37:54;100942.47;;;20.58;44.99
27805;BME280;15183;51.350;11.102;2022-09-21T15:40:25;100964.56;;;20.65;44.92
27805;BME280;15183;51.350;11.102;2022-09-21T15:45:56;100943.78;;;20.56;46.11
27805;BME280;15183;51.350;11.102;2022-09-21T15:48:32;100954.31;;;20.62;46.46
27805;BME280;15183;51.350;11.102;2022-09-21T15:51:09;100962.16;;;20.69;47.17
27805;BME280;15183;51.350;11.102;2022-09-21T15:53:49;100948.66;;;20.64;46.46